sensor_id;sensor_type;location;lat;lon;timestamp;temperature;humidity
23405;DHT22;11875;49.356;2.718;2024-01-27T00:01:15;4.70;99.90
23405;DHT22;11875;49.356;2.718;2024-01-27T00:03:41;4.60;99.90
23405;DHT22;11875;49.356;2.718;2024-01-27T00:06:06;4.70;99.90
23405;DHT22;11875;49.356;2.718;2024-01-27T00:08:32;6.00;99.90
23405;DHT22;11875;49.356;2.718;2024-01-27T00:10:58;4.60;99.90
23405;DHT22;11875;49.356;2.718;2024-01-27T00:13:23;4.60;99.90
23405;DHT22;11875;49.356;2.718;2024-01-27T00:15:49;4.50;99.90
23405;DHT22;11875;49.356;2.718;2024-01-27T00:18:15;4.40;99.90
23405;DHT22;11875;49.356;2.718;2024-01-27T00:20:41;4.40;99.90
23405;DHT22;11875;49.356;2.718;2024-01-27T00:23:07;4.50;99.90
23405;DHT22;11875;49.356;2.718;2024-01-27T00:25:33;4.50;99.90
23405;DHT22;11875;49.356;2.718;2024-01-27T00:27:59;4.40;99.90
23405;DHT22;11875;49.356;2.718;2024-01-27T00:30:25;4.30;99.90
23405;DHT22;11875;49.356;2.718;2024-01-27T00:32:51;4.30;99.90
23405;DHT22;11875;49.356;2.718;2024-01-27T00:35:17;4.30;99.90
23405;DHT22;11875;49.356;2.718;2024-01-27T00:37:43;4.20;99.90
23405;DHT22;11875;49.356;2.718;2024-01-27T00:40:09;4.20;99.90
23405;DHT22;11875;49.356;2.718;2024-01-27T00:42:36;4.20;99.90
23405;DHT22;11875;49.356;2.718;2024-01-27T00:45:01;4.20;99.90
23405;DHT22;11875;49.356;2.718;2024-01-27T00:47:27;4.20;99.90
23405;DHT22;11875;49.356;2.718;2024-01-27T00:49:52;4.20;99.90
23405;DHT22;11875;49.356;2.718;2024-01-27T00:52:20;4.20;99.90
23405;DHT22;11875;49.356;2.718;2024-01-27T00:54:45;4.10;99.90
23405;DHT22;11875;49.356;2.718;2024-01-27T00:57:11;4.10;99.90
23405;DHT22;11875;49.356;2.718;2024-01-27T00:59:37;4.20;99.90
23405;DHT22;11875;49.356;2.718;2024-01-27T01:02:03;4.20;99.90
23405;DHT22;11875;49.356;2.718;2024-01-27T01:04:29;4.20;99.90
23405;DHT22;11875;49.356;2.718;2024-01-27T01:06:54;4.10;99.90
23405;DHT22;11875;49.356;2.718;2024-01-27T01:09:20;4.10;99.90
23405;DHT22;11875;49.356;2.718;2024-01-27T01:11:46;4.10;99.90
23405;DHT22;11875;49.356;2.718;2024-01-27T01:14:12;4.10;99.90
23405;DHT22;11875;49.356;2.718;2024-01-27T01:16:37;4.10;99.90
23405;DHT22;11875;49.356;2.718;2024-01-27T01:19:03;4.00;99.90
23405;DHT22;11875;49.356;2.718;2024-01-27T01:21:29;4.00;99.90
23405;DHT22;11875;49.356;2.718;2024-01-27T01:23:55;4.10;99.90
23405;DHT22;11875;49.356;2.718;2024-01-27T01:26:20;4.10;99.90
23405;DHT22;11875;49.356;2.718;2024-01-27T01:28:46;4.00;99.90
23405;DHT22;11875;49.356;2.718;2024-01-27T01:31:11;3.90;99.90
23405;DHT22;11875;49.356;2.718;2024-01-27T01:33:37;4.00;99.90
23405;DHT22;11875;49.356;2.718;2024-01-27T01:36:03;4.00;99.90
23405;DHT22;11875;49.356;2.718;2024-01-27T01:38:29;3.90;99.90
23405;DHT22;11875;49.356;2.718;2024-01-27T01:40:54;4.00;99.90
23405;DHT22;11875;49.356;2.718;2024-01-27T01:43:20;3.90;99.90
23405;DHT22;11875;49.356;2.718;2024-01-27T01:45:46;3.90;99.90
23405;DHT22;11875;49.356;2.718;2024-01-27T01:48:12;4.00;99.90
23405;DHT22;11875;49.356;2.718;2024-01-27T01:50:37;3.90;99.90
23405;DHT22;11875;49.356;2.718;2024-01-27T01:53:04;3.90;99.90
23405;DHT22;11875;49.356;2.718;2024-01-27T01:55:31;3.80;99.90
23405;DHT22;11875;49.356;2.718;2024-01-27T01:57:56;3.80;99.90
23405;DHT22;11875;49.356;2.718;2024-01-27T02:00:22;3.80;99.90
23405;DHT22;11875;49.356;2.718;2024-01-27T02:02:48;3.80;99.90
23405;DHT22;11875;49.356;2.718;2024-01-27T02:05:14;3.70;99.90
23405;DHT22;11875;49.356;2.718;2024-01-27T02:07:40;3.70;99.90
23405;DHT22;11875;49.356;2.718;2024-01-27T02:10:13;3.70;99.90
23405;DHT22;11875;49.356;2.718;2024-01-27T02:12:40;3.70;99.90
23405;DHT22;11875;49.356;2.718;2024-01-27T02:15:09;3.70;99.90
23405;DHT22;11875;49.356;2.718;2024-01-27T02:17:36;3.60;99.90
23405;DHT22;11875;49.356;2.718;2024-01-27T02:20:02;3.60;99.90
23405;DHT22;11875;49.356;2.718;2024-01-27T02:22:28;3.50;99.90
23405;DHT22;11875;49.356;2.718;2024-01-27T02:24:53;3.50;99.90
23405;DHT22;11875;49.356;2.718;2024-01-27T02:27:19;3.50;99.90
23405;DHT22;11875;49.356;2.718;2024-01-27T02:29:45;3.50;99.90
23405;DHT22;11875;49.356;2.718;2024-01-27T02:32:10;3.50;99.90
23405;DHT22;11875;49.356;2.718;2024-01-27T02:34:36;3.50;99.90
23405;DHT22;11875;49.356;2.718;2024-01-27T02:37:02;3.50;99.90
23405;DHT22;11875;49.356;2.718;2024-01-27T02:39:28;3.50;99.90
23405;DHT22;11875;49.356;2.718;2024-01-27T02:41:54;3.50;99.90
23405;DHT22;11875;49.356;2.718;2024-01-27T02:44:19;3.50;99.90
23405;DHT22;11875;49.356;2.718;2024-01-27T02:46:45;3.40;99.90
23405;DHT22;11875;49.356;2.718;2024-01-27T02:49:10;3.50;99.90
23405;DHT22;11875;49.356;2.718;2024-01-27T02:51:36;3.40;99.90
23405;DHT22;11875;49.356;2.718;2024-01-27T02:54:02;3.40;99.90
23405;DHT22;11875;49.356;2.718;2024-01-27T02:56:27;3.30;99.90
23405;DHT22;11875;49.356;2.718;2024-01-27T02:58:53;3.30;99.90
23405;DHT22;11875;49.356;2.718;2024-01-27T03:01:19;3.40;99.90
23405;DHT22;11875;49.356;2.718;2024-01-27T03:03:44;3.40;99.90
23405;DHT22;11875;49.356;2.718;2024-01-27T03:06:10;3.40;99.90
23405;DHT22;11875;49.356;2.718;2024-01-27T03:08:35;3.40;99.90
23405;DHT22;11875;49.356;2.718;2024-01-27T03:11:03;3.40;99.90
23405;DHT22;11875;49.356;2.718;2024-01-27T03:13:29;3.40;99.90
23405;DHT22;11875;49.356;2.718;2024-01-27T03:15:55;3.40;99.90
23405;DHT22;11875;49.356;2.718;2024-01-27T03:18:21;3.30;99.90
23405;DHT22;11875;49.356;2.718;2024-01-27T03:20:47;3.30;99.90
23405;DHT22;11875;49.356;2.718;2024-01-27T03:23:13;3.40;99.90
23405;DHT22;11875;49.356;2.718;2024-01-27T03:25:38;3.40;99.90
23405;DHT22;11875;49.356;2.718;2024-01-27T03:28:04;3.30;99.90
23405;DHT22;11875;49.356;2.718;2024-01-27T03:30:30;3.30;99.90
23405;DHT22;11875;49.356;2.718;2024-01-27T03:32:55;3.20;99.90
23405;DHT22;11875;49.356;2.718;2024-01-27T03:35:21;3.20;99.90
23405;DHT22;11875;49.356;2.718;2024-01-27T03:37:46;3.20;99.90
23405;DHT22;11875;49.356;2.718;2024-01-27T03:40:13;3.20;99.90
23405;DHT22;11875;49.356;2.718;2024-01-27T03:42:38;3.20;99.90
23405;DHT22;11875;49.356;2.718;2024-01-27T03:45:04;3.10;99.90
23405;DHT22;11875;49.356;2.718;2024-01-27T03:47:30;3.10;99.90
23405;DHT22;11875;49.356;2.718;2024-01-27T03:49:56;3.10;99.90
23405;DHT22;11875;49.356;2.718;2024-01-27T03:52:22;3.10;99.90
23405;DHT22;11875;49.356;2.718;2024-01-27T03:54:47;3.10;99.90
23405;DHT22;11875;49.356;2.718;2024-01-27T03:57:13;3.00;99.90
23405;DHT22;11875;49.356;2.718;2024-01-27T03:59:40;3.10;99.90
23405;DHT22;11875;49.356;2.718;2024-01-27T04:02:07;3.10;99.90
23405;DHT22;11875;49.356;2.718;2024-01-27T04:04:32;3.10;99.90
23405;DHT22;11875;49.356;2.718;2024-01-27T04:06:58;2.90;99.90
23405;DHT22;11875;49.356;2.718;2024-01-27T04:09:24;2.90;99.90
23405;DHT22;11875;49.356;2.718;2024-01-27T04:11:49;2.90;99.90
23405;DHT22;11875;49.356;2.718;2024-01-27T04:14:15;2.80;99.90
23405;DHT22;11875;49.356;2.718;2024-01-27T04:16:41;2.80;99.90
23405;DHT22;11875;49.356;2.718;2024-01-27T04:19:06;2.90;99.90
23405;DHT22;11875;49.356;2.718;2024-01-27T04:21:32;2.90;99.90
23405;DHT22;11875;49.356;2.718;2024-01-27T04:23:58;2.70;99.90
23405;DHT22;11875;49.356;2.718;2024-01-27T04:26:24;2.70;99.90
23405;DHT22;11875;49.356;2.718;2024-01-27T04:28:49;2.70;99.90
23405;DHT22;11875;49.356;2.718;2024-01-27T04:31:15;2.80;99.90
23405;DHT22;11875;49.356;2.718;2024-01-27T04:33:41;2.80;99.90
23405;DHT22;11875;49.356;2.718;2024-01-27T04:36:06;2.80;99.90
23405;DHT22;11875;49.356;2.718;2024-01-27T04:38:34;2.80;99.90
23405;DHT22;11875;49.356;2.718;2024-01-27T04:40:59;2.80;99.90
23405;DHT22;11875;49.356;2.718;2024-01-27T04:43:25;2.80;99.90
23405;DHT22;11875;49.356;2.718;2024-01-27T04:45:50;2.80;99.90
23405;DHT22;11875;49.356;2.718;2024-01-27T04:48:16;2.70;99.90
23405;DHT22;11875;49.356;2.718;2024-01-27T04:50:42;2.80;99.90
23405;DHT22;11875;49.356;2.718;2024-01-27T04:53:07;2.80;99.90
23405;DHT22;11875;49.356;2.718;2024-01-27T04:55:33;2.70;99.90
23405;DHT22;11875;49.356;2.718;2024-01-27T04:57:59;2.60;99.90
23405;DHT22;11875;49.356;2.718;2024-01-27T05:00:25;2.60;99.90
23405;DHT22;11875;49.356;2.718;2024-01-27T05:02:52;2.50;99.90
23405;DHT22;11875;49.356;2.718;2024-01-27T05:05:18;2.50;99.90
23405;DHT22;11875;49.356;2.718;2024-01-27T05:07:44;2.60;99.90
23405;DHT22;11875;49.356;2.718;2024-01-27T05:10:14;2.60;99.90
23405;DHT22;11875;49.356;2.718;2024-01-27T05:12:39;2.50;99.90
23405;DHT22;11875;49.356;2.718;2024-01-27T05:15:05;2.50;99.90
23405;DHT22;11875;49.356;2.718;2024-01-27T05:17:31;2.50;99.90
23405;DHT22;11875;49.356;2.718;2024-01-27T05:19:58;2.50;99.90
23405;DHT22;11875;49.356;2.718;2024-01-27T05:22:23;2.50;99.90
23405;DHT22;11875;49.356;2.718;2024-01-27T05:24:49;2.50;99.90
23405;DHT22;11875;49.356;2.718;2024-01-27T05:27:15;2.40;99.90
23405;DHT22;11875;49.356;2.718;2024-01-27T05:29:40;2.40;99.90
23405;DHT22;11875;49.356;2.718;2024-01-27T05:32:06;2.40;99.90
23405;DHT22;11875;49.356;2.718;2024-01-27T05:34:32;2.30;99.90
23405;DHT22;11875;49.356;2.718;2024-01-27T05:36:58;2.30;99.90
23405;DHT22;11875;49.356;2.718;2024-01-27T05:39:23;2.40;99.90
23405;DHT22;11875;49.356;2.718;2024-01-27T05:41:49;2.40;99.90
23405;DHT22;11875;49.356;2.718;2024-01-27T05:44:15;2.30;99.90
23405;DHT22;11875;49.356;2.718;2024-01-27T05:46:40;2.30;99.90
23405;DHT22;11875;49.356;2.718;2024-01-27T05:49:06;2.30;99.90
23405;DHT22;11875;49.356;2.718;2024-01-27T05:51:32;2.30;99.90
23405;DHT22;11875;49.356;2.718;2024-01-27T05:53:57;2.40;99.90
23405;DHT22;11875;49.356;2.718;2024-01-27T05:56:23;2.40;99.90
23405;DHT22;11875;49.356;2.718;2024-01-27T05:58:49;2.30;99.90
23405;DHT22;11875;49.356;2.718;2024-01-27T06:01:14;2.30;99.90
23405;DHT22;11875;49.356;2.718;2024-01-27T06:03:43;2.30;99.90
23405;DHT22;11875;49.356;2.718;2024-01-27T06:06:09;2.30;99.90
23405;DHT22;11875;49.356;2.718;2024-01-27T06:08:36;2.30;99.90
23405;DHT22;11875;49.356;2.718;2024-01-27T06:11:02;2.20;99.90
23405;DHT22;11875;49.356;2.718;2024-01-27T06:13:29;2.20;99.90
23405;DHT22;11875;49.356;2.718;2024-01-27T06:15:54;2.20;99.90
23405;DHT22;11875;49.356;2.718;2024-01-27T06:18:20;2.30;99.90
23405;DHT22;11875;49.356;2.718;2024-01-27T06:20:46;2.20;99.90
23405;DHT22;11875;49.356;2.718;2024-01-27T06:23:12;2.20;99.90
23405;DHT22;11875;49.356;2.718;2024-01-27T06:25:37;2.10;99.90
23405;DHT22;11875;49.356;2.718;2024-01-27T06:28:03;2.10;99.90
23405;DHT22;11875;49.356;2.718;2024-01-27T06:30:29;2.10;99.90
23405;DHT22;11875;49.356;2.718;2024-01-27T06:32:55;2.10;99.90
23405;DHT22;11875;49.356;2.718;2024-01-27T06:35:20;2.00;99.90
23405;DHT22;11875;49.356;2.718;2024-01-27T06:37:46;2.00;99.90
23405;DHT22;11875;49.356;2.718;2024-01-27T06:40:13;2.00;99.90
23405;DHT22;11875;49.356;2.718;2024-01-27T06:42:39;2.00;99.90
23405;DHT22;11875;49.356;2.718;2024-01-27T06:45:05;1.90;99.90
23405;DHT22;11875;49.356;2.718;2024-01-27T06:47:31;1.90;99.90
23405;DHT22;11875;49.356;2.718;2024-01-27T06:49:56;2.00;99.90
23405;DHT22;11875;49.356;2.718;2024-01-27T06:52:22;2.00;99.90
23405;DHT22;11875;49.356;2.718;2024-01-27T06:54:48;1.90;99.90
23405;DHT22;11875;49.356;2.718;2024-01-27T06:57:20;1.20;99.90
23405;DHT22;11875;49.356;2.718;2024-01-27T06:59:48;1.80;99.90
23405;DHT22;11875;49.356;2.718;2024-01-27T07:02:27;1.90;99.90
23405;DHT22;11875;49.356;2.718;2024-01-27T07:04:53;1.90;99.90
23405;DHT22;11875;49.356;2.718;2024-01-27T07:07:24;1.90;99.90
23405;DHT22;11875;49.356;2.718;2024-01-27T07:09:51;1.90;99.90
23405;DHT22;11875;49.356;2.718;2024-01-27T07:12:16;1.90;99.90
23405;DHT22;11875;49.356;2.718;2024-01-27T07:14:42;1.80;99.90
23405;DHT22;11875;49.356;2.718;2024-01-27T07:17:08;1.70;99.90
23405;DHT22;11875;49.356;2.718;2024-01-27T07:19:33;1.70;99.90
23405;DHT22;11875;49.356;2.718;2024-01-27T07:21:59;1.80;99.90
23405;DHT22;11875;49.356;2.718;2024-01-27T07:24:29;1.70;99.90
23405;DHT22;11875;49.356;2.718;2024-01-27T07:26:55;1.70;99.90
23405;DHT22;11875;49.356;2.718;2024-01-27T07:29:21;1.70;99.90
23405;DHT22;11875;49.356;2.718;2024-01-27T07:31:47;1.80;99.90
23405;DHT22;11875;49.356;2.718;2024-01-27T07:34:13;1.90;99.90
23405;DHT22;11875;49.356;2.718;2024-01-27T07:36:39;1.80;99.90
23405;DHT22;11875;49.356;2.718;2024-01-27T07:39:04;1.70;99.90
23405;DHT22;11875;49.356;2.718;2024-01-27T07:41:31;1.70;99.90
23405;DHT22;11875;49.356;2.718;2024-01-27T07:43:57;1.70;99.90
23405;DHT22;11875;49.356;2.718;2024-01-27T07:46:22;1.70;99.90
23405;DHT22;11875;49.356;2.718;2024-01-27T07:48:48;1.70;99.90
23405;DHT22;11875;49.356;2.718;2024-01-27T07:51:17;1.70;99.90
23405;DHT22;11875;49.356;2.718;2024-01-27T07:53:42;1.70;99.90
23405;DHT22;11875;49.356;2.718;2024-01-27T07:56:08;1.70;99.90
23405;DHT22;11875;49.356;2.718;2024-01-27T07:58:34;1.70;99.90
23405;DHT22;11875;49.356;2.718;2024-01-27T08:00:59;1.60;99.90
23405;DHT22;11875;49.356;2.718;2024-01-27T08:03:25;1.60;99.90
23405;DHT22;11875;49.356;2.718;2024-01-27T08:05:51;1.60;99.90
23405;DHT22;11875;49.356;2.718;2024-01-27T08:08:17;1.70;99.90
23405;DHT22;11875;49.356;2.718;2024-01-27T08:10:43;1.70;99.90
23405;DHT22;11875;49.356;2.718;2024-01-27T08:13:09;1.70;99.90
23405;DHT22;11875;49.356;2.718;2024-01-27T08:15:35;1.80;99.90
23405;DHT22;11875;49.356;2.718;2024-01-27T08:18:00;1.80;99.90
23405;DHT22;11875;49.356;2.718;2024-01-27T08:20:26;1.80;99.90
23405;DHT22;11875;49.356;2.718;2024-01-27T08:22:52;1.80;99.90
23405;DHT22;11875;49.356;2.718;2024-01-27T08:25:20;1.80;99.90
23405;DHT22;11875;49.356;2.718;2024-01-27T08:27:46;1.80;99.90
23405;DHT22;11875;49.356;2.718;2024-01-27T08:30:12;1.80;99.90
23405;DHT22;11875;49.356;2.718;2024-01-27T08:32:38;1.90;99.90
23405;DHT22;11875;49.356;2.718;2024-01-27T08:35:04;1.90;99.90
23405;DHT22;11875;49.356;2.718;2024-01-27T08:37:29;1.90;99.90
23405;DHT22;11875;49.356;2.718;2024-01-27T08:39:56;2.00;99.90
23405;DHT22;11875;49.356;2.718;2024-01-27T08:42:22;2.10;99.90
23405;DHT22;11875;49.356;2.718;2024-01-27T08:44:48;2.60;99.90
23405;DHT22;11875;49.356;2.718;2024-01-27T08:47:14;3.20;99.90
23405;DHT22;11875;49.356;2.718;2024-01-27T08:49:39;3.60;99.90
23405;DHT22;11875;49.356;2.718;2024-01-27T08:52:06;3.90;99.90
23405;DHT22;11875;49.356;2.718;2024-01-27T08:54:32;4.20;99.90
23405;DHT22;11875;49.356;2.718;2024-01-27T08:56:58;4.30;99.90
23405;DHT22;11875;49.356;2.718;2024-01-27T08:59:23;4.40;99.90
23405;DHT22;11875;49.356;2.718;2024-01-27T09:01:49;4.50;99.90
23405;DHT22;11875;49.356;2.718;2024-01-27T09:04:15;4.50;99.90
23405;DHT22;11875;49.356;2.718;2024-01-27T09:06:40;4.50;99.90
23405;DHT22;11875;49.356;2.718;2024-01-27T09:09:06;4.40;99.90
23405;DHT22;11875;49.356;2.718;2024-01-27T09:11:31;4.40;99.90
23405;DHT22;11875;49.356;2.718;2024-01-27T09:13:59;4.30;99.90
23405;DHT22;11875;49.356;2.718;2024-01-27T09:16:25;4.20;99.90
23405;DHT22;11875;49.356;2.718;2024-01-27T09:18:50;4.20;99.90
23405;DHT22;11875;49.356;2.718;2024-01-27T09:21:16;4.10;99.90
23405;DHT22;11875;49.356;2.718;2024-01-27T09:23:49;4.00;99.90
23405;DHT22;11875;49.356;2.718;2024-01-27T09:26:14;4.00;99.90
23405;DHT22;11875;49.356;2.718;2024-01-27T09:28:43;4.00;99.90
23405;DHT22;11875;49.356;2.718;2024-01-27T09:31:11;3.90;99.90
23405;DHT22;11875;49.356;2.718;2024-01-27T09:33:37;3.90;99.90
23405;DHT22;11875;49.356;2.718;2024-01-27T09:36:03;3.90;99.90
23405;DHT22;11875;49.356;2.718;2024-01-27T09:38:29;3.90;99.90
23405;DHT22;11875;49.356;2.718;2024-01-27T09:40:54;4.00;99.90
23405;DHT22;11875;49.356;2.718;2024-01-27T09:43:21;4.00;99.90
23405;DHT22;11875;49.356;2.718;2024-01-27T09:45:47;4.00;99.90
23405;DHT22;11875;49.356;2.718;2024-01-27T09:48:13;4.10;99.90
23405;DHT22;11875;49.356;2.718;2024-01-27T09:50:42;4.20;99.90
23405;DHT22;11875;49.356;2.718;2024-01-27T09:53:08;4.20;99.90
23405;DHT22;11875;49.356;2.718;2024-01-27T09:55:35;4.20;99.90
23405;DHT22;11875;49.356;2.718;2024-01-27T09:58:01;4.30;99.90
23405;DHT22;11875;49.356;2.718;2024-01-27T10:00:27;4.50;99.90
23405;DHT22;11875;49.356;2.718;2024-01-27T10:02:54;4.40;99.90
23405;DHT22;11875;49.356;2.718;2024-01-27T10:05:21;4.40;99.90
23405;DHT22;11875;49.356;2.718;2024-01-27T10:07:47;4.40;99.90
23405;DHT22;11875;49.356;2.718;2024-01-27T10:10:13;4.40;99.90
23405;DHT22;11875;49.356;2.718;2024-01-27T10:12:41;4.30;99.90
23405;DHT22;11875;49.356;2.718;2024-01-27T10:15:20;4.40;99.90
23405;DHT22;11875;49.356;2.718;2024-01-27T10:17:45;4.50;99.90
23405;DHT22;11875;49.356;2.718;2024-01-27T10:20:11;4.60;99.90
23405;DHT22;11875;49.356;2.718;2024-01-27T10:22:41;4.70;99.90
23405;DHT22;11875;49.356;2.718;2024-01-27T10:25:08;4.80;99.90
23405;DHT22;11875;49.356;2.718;2024-01-27T10:27:34;4.80;99.90
23405;DHT22;11875;49.356;2.718;2024-01-27T10:30:00;4.80;99.90
23405;DHT22;11875;49.356;2.718;2024-01-27T10:32:26;4.70;99.90
23405;DHT22;11875;49.356;2.718;2024-01-27T10:37:27;4.80;99.90
23405;DHT22;11875;49.356;2.718;2024-01-27T10:40:02;4.90;99.90
23405;DHT22;11875;49.356;2.718;2024-01-27T10:42:29;4.90;99.90
23405;DHT22;11875;49.356;2.718;2024-01-27T10:44:57;5.10;99.90
23405;DHT22;11875;49.356;2.718;2024-01-27T10:47:30;6.40;99.90
23405;DHT22;11875;49.356;2.718;2024-01-27T10:49:57;5.60;99.90
23405;DHT22;11875;49.356;2.718;2024-01-27T10:52:31;5.50;99.90
23405;DHT22;11875;49.356;2.718;2024-01-27T10:54:59;5.60;99.90
23405;DHT22;11875;49.356;2.718;2024-01-27T10:57:29;5.70;99.90
23405;DHT22;11875;49.356;2.718;2024-01-27T10:59:56;5.70;99.90
23405;DHT22;11875;49.356;2.718;2024-01-27T11:02:22;5.80;99.90
23405;DHT22;11875;49.356;2.718;2024-01-27T11:04:48;5.90;99.90
23405;DHT22;11875;49.356;2.718;2024-01-27T11:07:20;6.10;99.90
23405;DHT22;11875;49.356;2.718;2024-01-27T11:09:49;6.20;99.90
23405;DHT22;11875;49.356;2.718;2024-01-27T11:12:21;6.30;99.90
23405;DHT22;11875;49.356;2.718;2024-01-27T11:14:48;6.40;99.90
23405;DHT22;11875;49.356;2.718;2024-01-27T11:17:15;6.40;99.90
23405;DHT22;11875;49.356;2.718;2024-01-27T11:19:41;6.30;99.90
23405;DHT22;11875;49.356;2.718;2024-01-27T11:22:07;6.30;99.90
23405;DHT22;11875;49.356;2.718;2024-01-27T11:24:32;6.50;99.90
23405;DHT22;11875;49.356;2.718;2024-01-27T11:27:04;6.60;99.90
23405;DHT22;11875;49.356;2.718;2024-01-27T11:29:31;6.80;99.90
23405;DHT22;11875;49.356;2.718;2024-01-27T11:32:00;6.80;99.90
23405;DHT22;11875;49.356;2.718;2024-01-27T11:34:26;6.70;99.90
23405;DHT22;11875;49.356;2.718;2024-01-27T11:36:52;6.70;99.90
23405;DHT22;11875;49.356;2.718;2024-01-27T11:41:50;6.70;99.90
23405;DHT22;11875;49.356;2.718;2024-01-27T11:44:16;6.70;99.90
23405;DHT22;11875;49.356;2.718;2024-01-27T11:46:47;6.70;99.90
23405;DHT22;11875;49.356;2.718;2024-01-27T11:49:15;7.30;99.90
23405;DHT22;11875;49.356;2.718;2024-01-27T11:51:41;7.00;99.90
23405;DHT22;11875;49.356;2.718;2024-01-27T11:54:07;7.00;99.90
23405;DHT22;11875;49.356;2.718;2024-01-27T11:56:32;7.10;99.90
23405;DHT22;11875;49.356;2.718;2024-01-27T11:58:58;7.10;99.90
23405;DHT22;11875;49.356;2.718;2024-01-27T12:01:24;7.20;99.90
23405;DHT22;11875;49.356;2.718;2024-01-27T12:03:49;7.20;99.90
23405;DHT22;11875;49.356;2.718;2024-01-27T12:06:15;7.30;99.90
23405;DHT22;11875;49.356;2.718;2024-01-27T12:08:41;7.40;99.90
23405;DHT22;11875;49.356;2.718;2024-01-27T12:11:13;7.50;99.90
23405;DHT22;11875;49.356;2.718;2024-01-27T12:13:39;7.50;99.90
23405;DHT22;11875;49.356;2.718;2024-01-27T12:16:05;7.70;99.90
23405;DHT22;11875;49.356;2.718;2024-01-27T12:18:31;7.60;99.90
23405;DHT22;11875;49.356;2.718;2024-01-27T12:20:57;7.70;99.90
23405;DHT22;11875;49.356;2.718;2024-01-27T12:23:23;7.80;99.90
23405;DHT22;11875;49.356;2.718;2024-01-27T12:25:55;7.80;99.90
23405;DHT22;11875;49.356;2.718;2024-01-27T12:28:22;7.80;99.90
23405;DHT22;11875;49.356;2.718;2024-01-27T12:30:52;7.70;99.90
23405;DHT22;11875;49.356;2.718;2024-01-27T12:33:18;7.80;99.90
23405;DHT22;11875;49.356;2.718;2024-01-27T12:35:48;7.90;99.90
23405;DHT22;11875;49.356;2.718;2024-01-27T12:38:14;8.00;99.90
23405;DHT22;11875;49.356;2.718;2024-01-27T12:40:40;8.10;99.90
23405;DHT22;11875;49.356;2.718;2024-01-27T12:43:06;8.10;99.90
23405;DHT22;11875;49.356;2.718;2024-01-27T12:45:32;8.10;99.90
23405;DHT22;11875;49.356;2.718;2024-01-27T12:48:00;8.10;99.90
23405;DHT22;11875;49.356;2.718;2024-01-27T12:50:26;8.30;99.90
23405;DHT22;11875;49.356;2.718;2024-01-27T12:52:51;8.40;99.90
23405;DHT22;11875;49.356;2.718;2024-01-27T12:55:17;8.90;99.90
23405;DHT22;11875;49.356;2.718;2024-01-27T12:57:43;8.60;99.90
23405;DHT22;11875;49.356;2.718;2024-01-27T13:00:09;8.60;99.90
23405;DHT22;11875;49.356;2.718;2024-01-27T13:02:36;8.60;99.90
23405;DHT22;11875;49.356;2.718;2024-01-27T13:05:03;8.70;99.90
23405;DHT22;11875;49.356;2.718;2024-01-27T13:07:29;8.60;99.90
23405;DHT22;11875;49.356;2.718;2024-01-27T13:09:55;8.50;99.90
23405;DHT22;11875;49.356;2.718;2024-01-27T13:12:21;8.30;99.90
23405;DHT22;11875;49.356;2.718;2024-01-27T13:14:47;8.40;99.90
23405;DHT22;11875;49.356;2.718;2024-01-27T13:17:14;8.40;99.90
23405;DHT22;11875;49.356;2.718;2024-01-27T13:19:40;8.40;99.90
23405;DHT22;11875;49.356;2.718;2024-01-27T13:22:06;8.30;99.90
23405;DHT22;11875;49.356;2.718;2024-01-27T13:24:32;8.30;99.90
23405;DHT22;11875;49.356;2.718;2024-01-27T13:26:58;8.30;99.90
23405;DHT22;11875;49.356;2.718;2024-01-27T13:29:24;8.30;99.90
23405;DHT22;11875;49.356;2.718;2024-01-27T13:31:50;8.30;99.90
23405;DHT22;11875;49.356;2.718;2024-01-27T13:34:15;8.20;99.90
23405;DHT22;11875;49.356;2.718;2024-01-27T13:36:41;8.30;99.90
23405;DHT22;11875;49.356;2.718;2024-01-27T13:39:07;8.40;99.90
23405;DHT22;11875;49.356;2.718;2024-01-27T13:41:32;8.40;99.90
23405;DHT22;11875;49.356;2.718;2024-01-27T13:43:58;8.30;99.90
23405;DHT22;11875;49.356;2.718;2024-01-27T13:46:23;8.40;99.90
23405;DHT22;11875;49.356;2.718;2024-01-27T13:48:49;8.40;99.90
23405;DHT22;11875;49.356;2.718;2024-01-27T13:51:15;8.30;99.90
23405;DHT22;11875;49.356;2.718;2024-01-27T13:53:40;8.20;99.90
23405;DHT22;11875;49.356;2.718;2024-01-27T13:56:06;8.20;99.90
23405;DHT22;11875;49.356;2.718;2024-01-27T13:58:32;8.30;99.90
23405;DHT22;11875;49.356;2.718;2024-01-27T14:00:58;8.20;99.90
23405;DHT22;11875;49.356;2.718;2024-01-27T14:03:25;8.40;99.90
23405;DHT22;11875;49.356;2.718;2024-01-27T14:05:50;8.40;99.90
23405;DHT22;11875;49.356;2.718;2024-01-27T14:08:16;8.40;99.90
23405;DHT22;11875;49.356;2.718;2024-01-27T14:10:43;8.60;99.90
23405;DHT22;11875;49.356;2.718;2024-01-27T14:13:09;8.70;99.90
23405;DHT22;11875;49.356;2.718;2024-01-27T14:15:36;8.80;99.90
23405;DHT22;11875;49.356;2.718;2024-01-27T14:18:02;8.80;99.90
23405;DHT22;11875;49.356;2.718;2024-01-27T14:20:29;9.00;99.90
23405;DHT22;11875;49.356;2.718;2024-01-27T14:22:56;9.20;99.90
23405;DHT22;11875;49.356;2.718;2024-01-27T14:25:23;9.20;99.90
23405;DHT22;11875;49.356;2.718;2024-01-27T14:27:49;9.20;99.90
23405;DHT22;11875;49.356;2.718;2024-01-27T14:30:14;9.20;99.90
23405;DHT22;11875;49.356;2.718;2024-01-27T14:32:40;9.30;99.90
23405;DHT22;11875;49.356;2.718;2024-01-27T14:35:06;9.10;99.90
23405;DHT22;11875;49.356;2.718;2024-01-27T14:37:32;9.00;99.90
23405;DHT22;11875;49.356;2.718;2024-01-27T14:39:58;8.70;99.90
23405;DHT22;11875;49.356;2.718;2024-01-27T14:42:24;8.70;99.90
23405;DHT22;11875;49.356;2.718;2024-01-27T14:44:50;8.50;99.90
23405;DHT22;11875;49.356;2.718;2024-01-27T14:47:18;8.70;99.90
23405;DHT22;11875;49.356;2.718;2024-01-27T14:49:45;8.80;99.90
23405;DHT22;11875;49.356;2.718;2024-01-27T14:52:11;8.90;99.90
23405;DHT22;11875;49.356;2.718;2024-01-27T14:54:38;8.90;99.90
23405;DHT22;11875;49.356;2.718;2024-01-27T14:57:04;8.90;99.90
23405;DHT22;11875;49.356;2.718;2024-01-27T14:59:31;8.90;99.90
23405;DHT22;11875;49.356;2.718;2024-01-27T15:01:57;9.10;99.90
23405;DHT22;11875;49.356;2.718;2024-01-27T15:04:23;9.10;99.90
23405;DHT22;11875;49.356;2.718;2024-01-27T15:06:55;9.20;99.90
23405;DHT22;11875;49.356;2.718;2024-01-27T15:09:22;9.20;99.90
23405;DHT22;11875;49.356;2.718;2024-01-27T15:11:49;9.10;99.90
23405;DHT22;11875;49.356;2.718;2024-01-27T15:14:14;9.10;99.90
23405;DHT22;11875;49.356;2.718;2024-01-27T15:16:40;9.20;99.90
23405;DHT22;11875;49.356;2.718;2024-01-27T15:19:06;9.30;99.90
23405;DHT22;11875;49.356;2.718;2024-01-27T15:21:32;9.50;99.90
23405;DHT22;11875;49.356;2.718;2024-01-27T15:23:58;9.60;99.90
23405;DHT22;11875;49.356;2.718;2024-01-27T15:26:23;9.50;99.90
23405;DHT22;11875;49.356;2.718;2024-01-27T15:28:49;9.40;99.90
23405;DHT22;11875;49.356;2.718;2024-01-27T15:31:15;9.40;99.90
23405;DHT22;11875;49.356;2.718;2024-01-27T15:33:41;9.50;99.90
23405;DHT22;11875;49.356;2.718;2024-01-27T15:36:07;9.40;99.90
23405;DHT22;11875;49.356;2.718;2024-01-27T15:38:33;9.30;99.90
23405;DHT22;11875;49.356;2.718;2024-01-27T15:40:58;9.30;99.90
23405;DHT22;11875;49.356;2.718;2024-01-27T15:43:24;9.40;99.90